sensor_id;sensor_type;location;lat;lon;timestamp;pressure;altitude;pressure_sealevel;temperature;humidity
79368;BME280;68834;53.152;17.962;2023-05-01T00:01:07;101816.40;;;1.77;59.31
79368;BME280;68834;53.152;17.962;2023-05-01T00:03:33;101819.11;;;1.75;59.21
79368;BME280;68834;53.152;17.962;2023-05-01T00:06:03;101818.16;;;1.78;59.31
79368;BME280;68834;53.152;17.962;2023-05-01T00:08:33;101815.94;;;1.79;59.75
79368;BME280;68834;53.152;17.962;2023-05-01T00:11:03;101818.48;;;1.77;59.53
79368;BME280;68834;53.152;17.962;2023-05-01T00:13:30;101820.10;;;1.73;59.49
79368;BME280;68834;53.152;17.962;2023-05-01T00:15:57;101818.66;;;1.71;59.30
79368;BME280;68834;53.152;17.962;2023-05-01T00:18:24;101819.17;;;1.71;59.80
79368;BME280;68834;53.152;17.962;2023-05-01T00:20:50;101817.67;;;1.67;59.92
79368;BME280;68834;53.152;17.962;2023-05-01T00:23:17;101818.14;;;1.59;59.70
79368;BME280;68834;53.152;17.962;2023-05-01T00:25:43;101825.52;;;1.52;59.73
79368;BME280;68834;53.152;17.962;2023-05-01T00:28:10;101827.91;;;1.46;60.18
79368;BME280;68834;53.152;17.962;2023-05-01T00:30:37;101831.28;;;1.37;60.12
79368;BME280;68834;53.152;17.962;2023-05-01T00:33:03;101827.86;;;1.32;60.62
79368;BME280;68834;53.152;17.962;2023-05-01T00:35:30;101825.80;;;1.27;60.64
79368;BME280;68834;53.152;17.962;2023-05-01T00:37:56;101827.00;;;1.21;60.84
79368;BME280;68834;53.152;17.962;2023-05-01T00:40:23;101825.63;;;1.16;61.27
79368;BME280;68834;53.152;17.962;2023-05-01T00:42:50;101822.73;;;1.11;61.26
79368;BME280;68834;53.152;17.962;2023-05-01T00:45:17;101819.34;;;1.08;61.48
79368;BME280;68834;53.152;17.962;2023-05-01T00:47:44;101813.72;;;1.04;61.60
79368;BME280;68834;53.152;17.962;2023-05-01T00:50:11;101815.88;;;1.01;61.74
79368;BME280;68834;53.152;17.962;2023-05-01T00:52:39;101818.85;;;0.98;61.73
79368;BME280;68834;53.152;17.962;2023-05-01T00:55:07;101817.39;;;0.94;61.95
79368;BME280;68834;53.152;17.962;2023-05-01T00:57:33;101817.96;;;0.91;61.81
79368;BME280;68834;53.152;17.962;2023-05-01T01:00:00;101816.63;;;0.87;61.91
79368;BME280;68834;53.152;17.962;2023-05-01T01:02:27;101817.16;;;0.82;62.11
79368;BME280;68834;53.152;17.962;2023-05-01T01:04:54;101813.59;;;0.79;61.76
79368;BME280;68834;53.152;17.962;2023-05-01T01:07:39;101814.48;;;0.74;62.30
79368;BME280;68834;53.152;17.962;2023-05-01T01:12:53;101810.31;;;0.73;62.09
79368;BME280;68834;53.152;17.962;2023-05-01T01:15:44;101811.98;;;0.76;62.34
79368;BME280;68834;53.152;17.962;2023-05-01T01:18:18;101811.52;;;0.78;62.46
79368;BME280;68834;53.152;17.962;2023-05-01T01:29:31;101814.55;;;0.70;62.42
79368;BME280;68834;53.152;17.962;2023-05-01T01:32:33;101812.79;;;0.64;62.63
79368;BME280;68834;53.152;17.962;2023-05-01T01:35:09;101810.08;;;0.60;62.94
79368;BME280;68834;53.152;17.962;2023-05-01T01:37:50;101806.34;;;0.56;63.01
79368;BME280;68834;53.152;17.962;2023-05-01T01:40:23;101805.11;;;0.50;63.06
79368;BME280;68834;53.152;17.962;2023-05-01T01:42:58;101804.32;;;0.47;63.56
79368;BME280;68834;53.152;17.962;2023-05-01T01:45:56;101801.69;;;0.45;63.60
79368;BME280;68834;53.152;17.962;2023-05-01T01:48:32;101800.42;;;0.43;63.55
79368;BME280;68834;53.152;17.962;2023-05-01T01:51:04;101794.08;;;0.39;63.64
79368;BME280;68834;53.152;17.962;2023-05-01T01:53:33;101792.90;;;0.35;63.76
79368;BME280;68834;53.152;17.962;2023-05-01T01:56:04;101787.41;;;0.30;63.91
79368;BME280;68834;53.152;17.962;2023-05-01T01:58:34;101783.66;;;0.26;63.83
79368;BME280;68834;53.152;17.962;2023-05-01T02:01:02;101784.27;;;0.23;63.89
79368;BME280;68834;53.152;17.962;2023-05-01T02:03:32;101782.30;;;0.21;64.16
79368;BME280;68834;53.152;17.962;2023-05-01T02:06:00;101780.42;;;0.21;64.06
79368;BME280;68834;53.152;17.962;2023-05-01T02:08:29;101777.30;;;0.20;64.12
79368;BME280;68834;53.152;17.962;2023-05-01T02:10:58;101775.20;;;0.20;63.97
79368;BME280;68834;53.152;17.962;2023-05-01T02:13:28;101770.78;;;0.21;64.05
79368;BME280;68834;53.152;17.962;2023-05-01T02:15:57;101769.98;;;0.23;64.06
79368;BME280;68834;53.152;17.962;2023-05-01T02:18:27;101773.50;;;0.20;64.17
79368;BME280;68834;53.152;17.962;2023-05-01T02:20:55;101770.16;;;0.18;64.44
79368;BME280;68834;53.152;17.962;2023-05-01T02:23:26;101763.88;;;0.15;64.68
79368;BME280;68834;53.152;17.962;2023-05-01T02:25:55;101764.86;;;0.14;64.46
79368;BME280;68834;53.152;17.962;2023-05-01T02:28:26;101757.98;;;0.14;64.49
79368;BME280;68834;53.152;17.962;2023-05-01T02:30:54;101756.23;;;0.13;65.01
79368;BME280;68834;53.152;17.962;2023-05-01T02:33:21;101754.06;;;0.10;64.92
79368;BME280;68834;53.152;17.962;2023-05-01T02:35:48;101753.77;;;0.06;64.88
79368;BME280;68834;53.152;17.962;2023-05-01T02:38:15;101751.21;;;0.02;65.04
79368;BME280;68834;53.152;17.962;2023-05-01T02:40:45;101753.14;;;-0.03;65.15
79368;BME280;68834;53.152;17.962;2023-05-01T02:43:15;101754.22;;;-0.11;65.55
79368;BME280;68834;53.152;17.962;2023-05-01T02:45:44;101751.45;;;-0.17;65.21
79368;BME280;68834;53.152;17.962;2023-05-01T02:48:15;101750.36;;;-0.18;65.39
79368;BME280;68834;53.152;17.962;2023-05-01T02:50:45;101748.98;;;-0.18;65.50
79368;BME280;68834;53.152;17.962;2023-05-01T02:53:12;101742.37;;;-0.16;65.52
79368;BME280;68834;53.152;17.962;2023-05-01T02:55:48;101743.67;;;-0.13;65.61
79368;BME280;68834;53.152;17.962;2023-05-01T02:58:19;101741.20;;;-0.10;65.49
79368;BME280;68834;53.152;17.962;2023-05-01T03:00:48;101737.92;;;-0.06;65.67
79368;BME280;68834;53.152;17.962;2023-05-01T03:03:15;101736.34;;;-0.02;65.80
79368;BME280;68834;53.152;17.962;2023-05-01T03:05:42;101732.39;;;-0.02;65.86
79368;BME280;68834;53.152;17.962;2023-05-01T03:08:09;101731.41;;;-0.04;65.80
79368;BME280;68834;53.152;17.962;2023-05-01T03:10:39;101732.91;;;-0.06;65.79
79368;BME280;68834;53.152;17.962;2023-05-01T03:13:08;101736.96;;;-0.08;66.07
79368;BME280;68834;53.152;17.962;2023-05-01T03:15:36;101732.23;;;-0.11;66.25
79368;BME280;68834;53.152;17.962;2023-05-01T03:18:04;101735.88;;;-0.15;66.08
79368;BME280;68834;53.152;17.962;2023-05-01T03:20:30;101735.09;;;-0.17;65.98
79368;BME280;68834;53.152;17.962;2023-05-01T03:22:57;101730.67;;;-0.21;66.01
79368;BME280;68834;53.152;17.962;2023-05-01T03:25:25;101730.02;;;-0.25;66.24
79368;BME280;68834;53.152;17.962;2023-05-01T03:27:51;101733.23;;;-0.26;66.10
79368;BME280;68834;53.152;17.962;2023-05-01T03:30:18;101734.27;;;-0.26;66.29
79368;BME280;68834;53.152;17.962;2023-05-01T03:32:45;101733.93;;;-0.21;66.14
79368;BME280;68834;53.152;17.962;2023-05-01T03:35:17;101734.08;;;-0.17;66.27
79368;BME280;68834;53.152;17.962;2023-05-01T03:37:44;101731.39;;;-0.15;66.10
79368;BME280;68834;53.152;17.962;2023-05-01T03:40:13;101731.32;;;-0.12;66.43
79368;BME280;68834;53.152;17.962;2023-05-01T03:43:12;101731.87;;;-0.07;66.50
79368;BME280;68834;53.152;17.962;2023-05-01T03:45:38;101734.34;;;0.01;66.44
79368;BME280;68834;53.152;17.962;2023-05-01T03:48:05;101730.88;;;0.05;66.51
79368;BME280;68834;53.152;17.962;2023-05-01T03:50:32;101736.10;;;0.07;66.67
79368;BME280;68834;53.152;17.962;2023-05-01T03:52:58;101736.04;;;0.10;66.38
79368;BME280;68834;53.152;17.962;2023-05-01T03:55:25;101738.10;;;0.15;66.33
79368;BME280;68834;53.152;17.962;2023-05-01T03:57:52;101738.77;;;0.20;66.44
79368;BME280;68834;53.152;17.962;2023-05-01T04:00:20;101736.39;;;0.21;66.54
79368;BME280;68834;53.152;17.962;2023-05-01T04:02:47;101735.27;;;0.23;66.88
79368;BME280;68834;53.152;17.962;2023-05-01T04:05:17;101736.16;;;0.24;67.01
79368;BME280;68834;53.152;17.962;2023-05-01T04:07:48;101735.36;;;0.26;66.99
79368;BME280;68834;53.152;17.962;2023-05-01T04:10:15;101734.79;;;0.30;67.04
79368;BME280;68834;53.152;17.962;2023-05-01T04:12:48;101733.34;;;0.38;66.86
79368;BME280;68834;53.152;17.962;2023-05-01T04:15:15;101730.75;;;0.48;66.80
79368;BME280;68834;53.152;17.962;2023-05-01T04:17:43;101733.86;;;0.60;66.87
79368;BME280;68834;53.152;17.962;2023-05-01T04:20:10;101729.84;;;0.74;66.62
79368;BME280;68834;53.152;17.962;2023-05-01T04:22:38;101729.16;;;0.86;66.91
79368;BME280;68834;53.152;17.962;2023-05-01T04:25:05;101731.75;;;0.91;66.59
79368;BME280;68834;53.152;17.962;2023-05-01T04:27:33;101732.34;;;1.00;66.81
79368;BME280;68834;53.152;17.962;2023-05-01T04:29:59;101732.31;;;1.10;66.82
79368;BME280;68834;53.152;17.962;2023-05-01T04:32:26;101733.95;;;1.19;66.87
79368;BME280;68834;53.152;17.962;2023-05-01T04:34:53;101728.06;;;1.24;66.70
79368;BME280;68834;53.152;17.962;2023-05-01T04:37:20;101730.45;;;1.29;67.09
79368;BME280;68834;53.152;17.962;2023-05-01T04:39:47;101730.33;;;1.36;66.79
79368;BME280;68834;53.152;17.962;2023-05-01T04:42:14;101729.77;;;1.41;66.84
79368;BME280;68834;53.152;17.962;2023-05-01T04:44:40;101733.72;;;1.47;66.62
79368;BME280;68834;53.152;17.962;2023-05-01T04:47:08;101731.79;;;1.52;66.76
79368;BME280;68834;53.152;17.962;2023-05-01T04:49:35;101732.52;;;1.60;66.58
79368;BME280;68834;53.152;17.962;2023-05-01T04:52:02;101731.77;;;1.71;66.42
79368;BME280;68834;53.152;17.962;2023-05-01T04:54:34;101728.61;;;1.81;66.49
79368;BME280;68834;53.152;17.962;2023-05-01T04:57:01;101726.20;;;1.94;66.99
79368;BME280;68834;53.152;17.962;2023-05-01T04:59:28;101731.02;;;2.07;66.91
79368;BME280;68834;53.152;17.962;2023-05-01T05:01:55;101728.59;;;2.20;66.81
79368;BME280;68834;53.152;17.962;2023-05-01T05:04:22;101724.77;;;2.33;66.57
79368;BME280;68834;53.152;17.962;2023-05-01T05:06:50;101721.85;;;2.48;66.38
79368;BME280;68834;53.152;17.962;2023-05-01T05:09:21;101722.16;;;2.61;66.41
79368;BME280;68834;53.152;17.962;2023-05-01T05:11:48;101721.16;;;2.77;66.24
79368;BME280;68834;53.152;17.962;2023-05-01T05:14:21;101719.91;;;2.91;66.13
79368;BME280;68834;53.152;17.962;2023-05-01T05:16:47;101719.21;;;3.07;66.06
79368;BME280;68834;53.152;17.962;2023-05-01T05:19:15;101718.48;;;3.21;65.93
79368;BME280;68834;53.152;17.962;2023-05-01T05:21:42;101722.05;;;3.35;65.95
79368;BME280;68834;53.152;17.962;2023-05-01T05:24:08;101722.80;;;3.46;65.72
79368;BME280;68834;53.152;17.962;2023-05-01T05:26:35;101721.13;;;3.58;65.45
79368;BME280;68834;53.152;17.962;2023-05-01T05:29:03;101713.58;;;3.69;65.41
79368;BME280;68834;53.152;17.962;2023-05-01T05:31:29;101710.64;;;3.80;65.17
79368;BME280;68834;53.152;17.962;2023-05-01T05:33:56;101712.59;;;3.92;64.96
79368;BME280;68834;53.152;17.962;2023-05-01T05:36:23;101712.10;;;4.03;64.93
79368;BME280;68834;53.152;17.962;2023-05-01T05:38:50;101710.95;;;4.16;64.78
79368;BME280;68834;53.152;17.962;2023-05-01T05:41:18;101709.10;;;4.31;64.50
79368;BME280;68834;53.152;17.962;2023-05-01T05:43:45;101707.60;;;4.45;64.39
79368;BME280;68834;53.152;17.962;2023-05-01T05:46:12;101708.20;;;4.61;64.11
79368;BME280;68834;53.152;17.962;2023-05-01T05:48:39;101704.27;;;4.76;63.89
79368;BME280;68834;53.152;17.962;2023-05-01T05:51:05;101702.91;;;4.91;63.53
79368;BME280;68834;53.152;17.962;2023-05-01T05:53:32;101697.57;;;5.06;63.34
79368;BME280;68834;53.152;17.962;2023-05-01T05:55:59;101693.97;;;5.23;62.95
79368;BME280;68834;53.152;17.962;2023-05-01T05:58:26;101693.85;;;5.43;62.67
79368;BME280;68834;53.152;17.962;2023-05-01T06:00:53;101692.70;;;5.64;62.32
79368;BME280;68834;53.152;17.962;2023-05-01T06:03:21;101689.28;;;5.86;62.19
79368;BME280;68834;53.152;17.962;2023-05-01T06:05:49;101691.42;;;6.08;61.59
79368;BME280;68834;53.152;17.962;2023-05-01T06:08:16;101690.38;;;6.28;61.11
79368;BME280;68834;53.152;17.962;2023-05-01T06:10:43;101694.86;;;6.47;60.27
79368;BME280;68834;53.152;17.962;2023-05-01T06:13:09;101694.63;;;6.65;60.13
79368;BME280;68834;53.152;17.962;2023-05-01T06:15:37;101692.84;;;6.83;59.56
79368;BME280;68834;53.152;17.962;2023-05-01T06:18:04;101694.83;;;7.02;58.88
79368;BME280;68834;53.152;17.962;2023-05-01T06:20:31;101692.84;;;7.21;58.33
79368;BME280;68834;53.152;17.962;2023-05-01T06:22:58;101685.79;;;7.40;57.70
79368;BME280;68834;53.152;17.962;2023-05-01T06:25:33;101691.58;;;7.65;56.71
79368;BME280;68834;53.152;17.962;2023-05-01T06:27:59;101694.77;;;7.87;56.99
79368;BME280;68834;53.152;17.962;2023-05-01T06:30:26;101692.88;;;8.11;55.75
79368;BME280;68834;53.152;17.962;2023-05-01T06:32:53;101692.00;;;8.28;54.61
79368;BME280;68834;53.152;17.962;2023-05-01T06:35:20;101685.23;;;8.44;53.66
79368;BME280;68834;53.152;17.962;2023-05-01T06:37:46;101689.41;;;8.55;52.59
79368;BME280;68834;53.152;17.962;2023-05-01T06:40:13;101690.78;;;8.63;51.73
79368;BME280;68834;53.152;17.962;2023-05-01T06:42:41;101686.41;;;8.74;51.74
79368;BME280;68834;53.152;17.962;2023-05-01T06:45:08;101680.63;;;8.84;51.94
79368;BME280;68834;53.152;17.962;2023-05-01T06:47:35;101683.55;;;8.97;51.16
79368;BME280;68834;53.152;17.962;2023-05-01T06:50:02;101678.63;;;9.09;51.46
79368;BME280;68834;53.152;17.962;2023-05-01T06:52:30;101677.70;;;9.21;51.28
79368;BME280;68834;53.152;17.962;2023-05-01T06:54:56;101670.67;;;9.34;51.15
79368;BME280;68834;53.152;17.962;2023-05-01T06:57:23;101671.83;;;9.44;50.46
79368;BME280;68834;53.152;17.962;2023-05-01T06:59:50;101667.26;;;9.52;50.36
79368;BME280;68834;53.152;17.962;2023-05-01T07:02:16;101669.27;;;9.64;50.16
79368;BME280;68834;53.152;17.962;2023-05-01T07:04:43;101670.27;;;9.73;50.08
79368;BME280;68834;53.152;17.962;2023-05-01T07:07:10;101671.42;;;9.82;49.88
79368;BME280;68834;53.152;17.962;2023-05-01T07:09:37;101664.55;;;9.91;49.63
79368;BME280;68834;53.152;17.962;2023-05-01T07:12:04;101664.11;;;10.02;49.24
79368;BME280;68834;53.152;17.962;2023-05-01T07:14:33;101663.19;;;10.10;48.67
79368;BME280;68834;53.152;17.962;2023-05-01T07:17:00;101661.02;;;10.18;48.94
79368;BME280;68834;53.152;17.962;2023-05-01T07:19:27;101659.00;;;10.31;49.13
79368;BME280;68834;53.152;17.962;2023-05-01T07:21:54;101653.49;;;10.42;48.54
79368;BME280;68834;53.152;17.962;2023-05-01T07:24:20;101655.42;;;10.59;49.07
79368;BME280;68834;53.152;17.962;2023-05-01T07:26:47;101652.59;;;10.78;48.18
79368;BME280;68834;53.152;17.962;2023-05-01T07:29:14;101649.38;;;10.99;48.36
79368;BME280;68834;53.152;17.962;2023-05-01T07:31:42;101649.92;;;11.25;47.87
79368;BME280;68834;53.152;17.962;2023-05-01T07:34:08;101650.25;;;11.52;47.47
79368;BME280;68834;53.152;17.962;2023-05-01T07:36:35;101648.50;;;11.76;46.82
79368;BME280;68834;53.152;17.962;2023-05-01T07:39:03;101646.91;;;12.00;46.52
79368;BME280;68834;53.152;17.962;2023-05-01T07:41:30;101647.70;;;12.27;45.11
79368;BME280;68834;53.152;17.962;2023-05-01T07:43:57;101643.81;;;12.47;44.33
79368;BME280;68834;53.152;17.962;2023-05-01T07:46:25;101639.76;;;12.67;43.94
79368;BME280;68834;53.152;17.962;2023-05-01T07:48:52;101635.02;;;12.85;42.67
79368;BME280;68834;53.152;17.962;2023-05-01T07:51:19;101628.45;;;13.06;43.00
79368;BME280;68834;53.152;17.962;2023-05-01T07:53:46;101635.98;;;13.33;40.65
79368;BME280;68834;53.152;17.962;2023-05-01T07:56:14;101631.74;;;13.42;39.04
79368;BME280;68834;53.152;17.962;2023-05-01T07:58:41;101623.48;;;13.57;39.59
79368;BME280;68834;53.152;17.962;2023-05-01T08:01:09;101628.80;;;13.71;39.64
79368;BME280;68834;53.152;17.962;2023-05-01T08:03:36;101631.09;;;13.92;39.30
79368;BME280;68834;53.152;17.962;2023-05-01T08:06:03;101628.96;;;14.14;38.62
79368;BME280;68834;53.152;17.962;2023-05-01T08:08:30;101625.87;;;14.38;38.31
79368;BME280;68834;53.152;17.962;2023-05-01T08:10:56;101621.17;;;14.70;37.73
79368;BME280;68834;53.152;17.962;2023-05-01T08:13:23;101623.40;;;14.96;37.64
79368;BME280;68834;53.152;17.962;2023-05-01T08:15:50;101626.82;;;15.23;36.53
79368;BME280;68834;53.152;17.962;2023-05-01T08:18:17;101619.70;;;15.48;36.55
79368;BME280;68834;53.152;17.962;2023-05-01T08:20:48;101616.79;;;15.80;35.66
79368;BME280;68834;53.152;17.962;2023-05-01T08:23:15;101616.52;;;15.99;34.29
79368;BME280;68834;53.152;17.962;2023-05-01T08:25:43;101614.10;;;15.92;32.13
79368;BME280;68834;53.152;17.962;2023-05-01T08:28:13;101612.77;;;15.85;33.23
79368;BME280;68834;53.152;17.962;2023-05-01T08:30:40;101605.04;;;15.99;33.55
79368;BME280;68834;53.152;17.962;2023-05-01T08:33:06;101602.02;;;16.16;32.05
79368;BME280;68834;53.152;17.962;2023-05-01T08:35:33;101593.73;;;16.21;32.73
79368;BME280;68834;53.152;17.962;2023-05-01T08:38:00;101595.44;;;16.37;31.79
79368;BME280;68834;53.152;17.962;2023-05-01T08:40:30;101596.94;;;16.25;30.63
79368;BME280;68834;53.152;17.962;2023-05-01T08:43:00;101588.86;;;16.09;31.31
79368;BME280;68834;53.152;17.962;2023-05-01T08:45:28;101585.49;;;16.19;31.64
79368;BME280;68834;53.152;17.962;2023-05-01T08:48:05;101583.66;;;16.36;31.18
79368;BME280;68834;53.152;17.962;2023-05-01T08:50:35;101583.60;;;16.53;31.00
79368;BME280;68834;53.152;17.962;2023-05-01T08:53:04;101580.13;;;16.71;31.49
79368;BME280;68834;53.152;17.962;2023-05-01T08:55:33;101579.26;;;17.12;31.44
79368;BME280;68834;53.152;17.962;2023-05-01T08:58:00;101581.11;;;17.46;30.02
79368;BME280;68834;53.152;17.962;2023-05-01T09:00:29;101574.70;;;17.56;29.58
79368;BME280;68834;53.152;17.962;2023-05-01T09:02:59;101572.98;;;17.55;28.91
79368;BME280;68834;53.152;17.962;2023-05-01T09:05:31;101569.29;;;17.54;28.85
79368;BME280;68834;53.152;17.962;2023-05-01T09:07:58;101566.77;;;17.47;28.05
79368;BME280;68834;53.152;17.962;2023-05-01T09:10:25;101557.45;;;17.32;28.80
79368;BME280;68834;53.152;17.962;2023-05-01T09:12:56;101552.16;;;17.41;28.69
79368;BME280;68834;53.152;17.962;2023-05-01T09:15:26;101551.41;;;17.55;28.93
79368;BME280;68834;53.152;17.962;2023-05-01T09:17:55;101556.96;;;17.79;28.57
79368;BME280;68834;53.152;17.962;2023-05-01T09:20:21;101554.55;;;18.03;28.80
79368;BME280;68834;53.152;17.962;2023-05-01T09:22:49;101548.55;;;18.31;27.30
79368;BME280;68834;53.152;17.962;2023-05-01T09:25:15;101542.35;;;18.47;27.73
79368;BME280;68834;53.152;17.962;2023-05-01T09:27:44;101540.52;;;18.56;26.06
79368;BME280;68834;53.152;17.962;2023-05-01T09:30:37;101534.96;;;18.58;26.85
79368;BME280;68834;53.152;17.962;2023-05-01T09:33:12;101535.57;;;18.91;26.22
79368;BME280;68834;53.152;17.962;2023-05-01T09:35:49;101534.38;;;19.23;26.59
79368;BME280;68834;53.152;17.962;2023-05-01T09:38:27;101535.67;;;19.51;25.40
79368;BME280;68834;53.152;17.962;2023-05-01T09:41:02;101532.54;;;19.43;24.70
79368;BME280;68834;53.152;17.962;2023-05-01T09:43:30;101522.61;;;19.28;24.68
79368;BME280;68834;53.152;17.962;2023-05-01T09:46:08;101515.55;;;19.20;24.95
79368;BME280;68834;53.152;17.962;2023-05-01T09:48:36;101510.70;;;19.36;25.17
79368;BME280;68834;53.152;17.962;2023-05-01T09:51:20;101505.08;;;19.20;24.64
79368;BME280;68834;53.152;17.962;2023-05-01T09:53:47;101505.67;;;19.23;24.98
79368;BME280;68834;53.152;17.962;2023-05-01T09:56:14;101496.83;;;19.41;25.63
79368;BME280;68834;53.152;17.962;2023-05-01T09:58:41;101491.98;;;19.70;25.57
79368;BME280;68834;53.152;17.962;2023-05-01T10:01:08;101484.41;;;20.00;25.44
79368;BME280;68834;53.152;17.962;2023-05-01T10:03:36;101484.01;;;20.24;24.44
79368;BME280;68834;53.152;17.962;2023-05-01T10:06:03;101486.02;;;20.10;23.47
79368;BME280;68834;53.152;17.962;2023-05-01T10:08:47;101487.96;;;19.86;22.38
79368;BME280;68834;53.152;17.962;2023-05-01T10:11:14;101494.27;;;19.49;22.77
79368;BME280;68834;53.152;17.962;2023-05-01T10:13:41;101490.28;;;19.30;23.49
79368;BME280;68834;53.152;17.962;2023-05-01T10:16:27;101483.84;;;19.45;23.94
79368;BME280;68834;53.152;17.962;2023-05-01T10:18:55;101481.29;;;19.98;24.43
79368;BME280;68834;53.152;17.962;2023-05-01T10:21:24;101483.38;;;20.16;22.72
79368;BME280;68834;53.152;17.962;2023-05-01T10:23:51;101482.88;;;19.95;23.10
79368;BME280;68834;53.152;17.962;2023-05-01T10:26:18;101478.10;;;20.02;23.58
79368;BME280;68834;53.152;17.962;2023-05-01T10:28:46;101474.89;;;20.28;23.56
79368;BME280;68834;53.152;17.962;2023-05-01T10:31:14;101472.77;;;20.74;23.62
79368;BME280;68834;53.152;17.962;2023-05-01T10:33:43;101469.19;;;21.34;23.61
79368;BME280;68834;53.152;17.962;2023-05-01T10:36:16;101466.52;;;21.70;22.88
79368;BME280;68834;53.152;17.962;2023-05-01T10:38:44;101464.33;;;21.97;22.85
79368;BME280;68834;53.152;17.962;2023-05-01T10:41:59;101461.14;;;21.94;20.70
79368;BME280;68834;53.152;17.962;2023-05-01T10:44:24;101461.61;;;21.45;20.61
79368;BME280;68834;53.152;17.962;2023-05-01T10:46:53;101458.45;;;21.10;20.98
79368;BME280;68834;53.152;17.962;2023-05-01T10:49:20;101456.63;;;20.96;20.95
79368;BME280;68834;53.152;17.962;2023-05-01T10:54:32;101446.21;;;21.22;21.22
79368;BME280;68834;53.152;17.962;2023-05-01T10:57:00;101445.13;;;21.13;19.95
79368;BME280;68834;53.152;17.962;2023-05-01T11:02:25;101433.62;;;20.79;20.11
79368;BME280;68834;53.152;17.962;2023-05-01T11:04:52;101426.65;;;20.92;19.65
79368;BME280;68834;53.152;17.962;2023-05-01T11:07:22;101421.13;;;21.10;20.16
79368;BME280;68834;53.152;17.962;2023-05-01T11:09:53;101425.01;;;21.14;19.62
79368;BME280;68834;53.152;17.962;2023-05-01T11:15:24;101420.09;;;21.93;20.52
79368;BME280;68834;53.152;17.962;2023-05-01T11:17:51;101414.87;;;24.01;18.81
79368;BME280;68834;53.152;17.962;2023-05-01T11:22:52;101403.47;;;27.99;15.92
79368;BME280;68834;53.152;17.962;2023-05-01T11:25:27;101397.60;;;29.58;15.16
79368;BME280;68834;53.152;17.962;2023-05-01T11:27:59;101397.11;;;31.23;14.08
79368;BME280;68834;53.152;17.962;2023-05-01T11:30:36;101394.51;;;31.85;11.36
79368;BME280;68834;53.152;17.962;2023-05-01T11:33:03;101389.00;;;32.01;10.89
79368;BME280;68834;53.152;17.962;2023-05-01T11:35:31;101390.25;;;32.25;10.11
79368;BME280;68834;53.152;17.962;2023-05-01T11:37:58;101386.71;;;32.23;9.96
79368;BME280;68834;53.152;17.962;2023-05-01T11:40:29;101382.06;;;32.41;10.70
79368;BME280;68834;53.152;17.962;2023-05-01T11:43:02;101379.29;;;32.96;10.91
79368;BME280;68834;53.152;17.962;2023-05-01T11:45:29;101377.50;;;33.93;10.50
79368;BME280;68834;53.152;17.962;2023-05-01T11:47:57;101377.66;;;34.20;8.84
79368;BME280;68834;53.152;17.962;2023-05-01T11:50:37;101375.86;;;33.61;8.74
79368;BME280;68834;53.152;17.962;2023-05-01T11:53:10;101371.63;;;33.46;9.30
79368;BME280;68834;53.152;17.962;2023-05-01T11:55:37;101374.31;;;33.17;9.53
79368;BME280;68834;53.152;17.962;2023-05-01T11:58:05;101373.43;;;32.99;9.80
79368;BME280;68834;53.152;17.962;2023-05-01T12:00:37;101364.31;;;33.01;10.01
79368;BME280;68834;53.152;17.962;2023-05-01T12:03:07;101366.14;;;33.02;10.18
79368;BME280;68834;53.152;17.962;2023-05-01T12:05:35;101357.61;;;33.80;10.43
79368;BME280;68834;53.152;17.962;2023-05-01T12:08:08;101359.08;;;34.22;9.12
79368;BME280;68834;53.152;17.962;2023-05-01T12:10:36;101357.86;;;33.07;9.04
79368;BME280;68834;53.152;17.962;2023-05-01T12:13:04;101356.04;;;32.54;9.68
79368;BME280;68834;53.152;17.962;2023-05-01T12:15:34;101346.70;;;32.20;10.32
79368;BME280;68834;53.152;17.962;2023-05-01T12:18:04;101339.10;;;32.37;10.69
79368;BME280;68834;53.152;17.962;2023-05-01T12:20:42;101331.91;;;32.99;10.68
79368;BME280;68834;53.152;17.962;2023-05-01T12:23:11;101329.52;;;32.99;10.33
79368;BME280;68834;53.152;17.962;2023-05-01T12:25:39;101333.13;;;32.50;10.64
79368;BME280;68834;53.152;17.962;2023-05-01T12:28:18;101327.59;;;32.32;10.90
79368;BME280;68834;53.152;17.962;2023-05-01T12:30:46;101319.20;;;32.45;10.59
79368;BME280;68834;53.152;17.962;2023-05-01T12:33:14;101315.42;;;31.89;10.70
79368;BME280;68834;53.152;17.962;2023-05-01T12:35:42;101314.27;;;31.81;11.26
79368;BME280;68834;53.152;17.962;2023-05-01T12:38:20;101324.52;;;31.23;11.00
79368;BME280;68834;53.152;17.962;2023-05-01T12:40:57;101324.11;;;30.26;11.33
79368;BME280;68834;53.152;17.962;2023-05-01T12:43:32;101313.84;;;28.98;12.13
79368;BME280;68834;53.152;17.962;2023-05-01T12:45:59;101316.33;;;28.34;12.84
79368;BME280;68834;53.152;17.962;2023-05-01T12:48:26;101312.73;;;27.69;13.54
79368;BME280;68834;53.152;17.962;2023-05-01T12:50:55;101306.34;;;27.56;13.90
79368;BME280;68834;53.152;17.962;2023-05-01T12:53:24;101303.74;;;28.18;13.70
79368;BME280;68834;53.152;17.962;2023-05-01T12:55:53;101288.16;;;29.04;13.78
79368;BME280;68834;53.152;17.962;2023-05-01T12:58:21;101284.91;;;30.08;13.09
79368;BME280;68834;53.152;17.962;2023-05-01T13:00:53;101284.53;;;30.28;12.60
79368;BME280;68834;53.152;17.962;2023-05-01T13:03:25;101281.82;;;30.33;12.77
79368;BME280;68834;53.152;17.962;2023-05-01T13:08:32;101265.91;;;31.18;12.65
79368;BME280;68834;53.152;17.962;2023-05-01T13:11:00;101256.42;;;30.93;12.49
79368;BME280;68834;53.152;17.962;2023-05-01T13:13:33;101259.10;;;30.33;12.38
79368;BME280;68834;53.152;17.962;2023-05-01T13:16:15;101263.33;;;29.56;12.54
79368;BME280;68834;53.152;17.962;2023-05-01T13:18:47;101257.52;;;28.73;12.74
79368;BME280;68834;53.152;17.962;2023-05-01T13:21:17;101254.34;;;28.55;13.15